Shuri — JL6688 — position and weather

sailwx.info

Track history (hours):
 
Tides and Currents Weather Stations Pressure Air Temp Water Temp Dewpoint Dewpoint Depression Visibility Wind Speed Wind Dir Waves Ship Positions

Shuri

Last reported at 2018-Jul-21 19:30 UTC. Time now 2018-Jul-21 19:27 UTC.
Position N 34°59' E 139°39'.

Length 167 m; draft 6.4 m.

Type: Cargo ship. MMSI: 431501723.

Date/timePositionNaut miles runAvg speedWind from/ knotsBaromVisibWave heightAir tempDewpointWater temp
2018-Jul-21 19:30N 34°59' E 139°39'1120.3
2018-Jul-21 18:58N 34°53' E 139°28'22318.8
2018-Jul-21 07:08N 33°42' E 135°12'320.1
2018-Jul-21 07:00N 33°44' E 135°10'1020.5
2018-Jul-21 06:30N 33°52' E 135°02'1019.3
2018-Jul-21 06:01N 34°01' E 134°59'918.2
2018-Jul-21 05:30N 34°10' E 134°59'917.5
2018-Jul-21 05:00N 34°19' E 134°59'815.9
2018-Jul-21 04:30N 34°25' E 135°05'918.9
2018-Jul-21 04:00N 34°31' E 135°13'917.7
2018-Jul-21 03:30N 34°37' E 135°21'3 5.5
2018-Jul-21 03:00N 34°37' E 135°25'0 0.0
2018-Jul-21 02:30N 34°37' E 135°25'0 0.0
2018-Jul-21 02:00N 34°37' E 135°25'0 0.0
2018-Jul-21 01:30N 34°37' E 135°25'0 0.0
2018-Jul-21 01:00N 34°37' E 135°25'0 0.0
2018-Jul-21 00:30N 34°37' E 135°25'0 0.0
2018-Jul-21 00:00N 34°37' E 135°25'0 0.0
2018-Jul-20 23:24N 34°37' E 135°25'0 0.0
2018-Jul-20 23:00N 34°37' E 135°25'0 0.2
2018-Jul-20 22:30N 34°37' E 135°25'611.3
2018-Jul-20 22:01N 34°35' E 135°19'918.2
2018-Jul-20 21:30N 34°28' E 135°11'918.1
2018-Jul-20 21:00N 34°21' E 135°04'917.5
2018-Jul-20 20:30N 34°14' E 134°58'918.8
2018-Jul-20 20:01N 34°05' E 134°56'918.6
2018-Jul-20 19:31N 33°56' E 134°53'1218.2
2018-Jul-20 18:51N 33°45' E 134°47'618.7
2018-Jul-20 18:30N 33°39' E 134°42'  
2018-Jul-17 16:11N 33°26' E 134°29'421.2
2018-Jul-17 16:00N 33°29' E 134°32'1121.1
2018-Jul-17 15:30N 33°38' E 134°40'1121.0
2018-Jul-17 15:00N 33°46' E 134°48'1020.2
2018-Jul-17 14:30N 33°55' E 134°53'1020.4
2018-Jul-17 14:00N 34°05' E 134°56'1020.5
2018-Jul-17 13:30N 34°15' E 134°58'918.5
2018-Jul-17 13:00N 34°23' E 135°02'1020.4
2018-Jul-17 12:30N 34°30' E 135°12'918.5
2018-Jul-17 12:00N 34°36' E 135°20'4 7.9
2018-Jul-17 11:30N 34°37' E 135°25'0 0.3
2018-Jul-17 11:00N 34°37' E 135°25'0 0.0
2018-Jul-17 10:30N 34°37' E 135°25'0 0.0
2018-Jul-17 09:57N 34°37' E 135°25'0 0.0
2018-Jul-17 09:30N 34°37' E 135°25'0 0.0
2018-Jul-17 09:00N 34°37' E 135°25'0 0.0
2018-Jul-17 08:27N 34°37' E 135°25'0 0.0
2018-Jul-17 07:57N 34°37' E 135°25'0 0.0
2018-Jul-17 07:21N 34°37' E 135°25'0 0.0
2018-Jul-17 06:57N 34°37' E 135°25'0 0.0
2018-Jul-17 06:27N 34°37' E 135°25'0 0.0
2018-Jul-17 05:57N 34°37' E 135°25'0 0.0
2018-Jul-17 05:21N 34°37' E 135°25'0 0.0
2018-Jul-17 04:57N 34°37' E 135°25'0 0.0
2018-Jul-17 04:27N 34°37' E 135°25'2 4.6
2018-Jul-17 04:01N 34°37' E 135°22'917.8
2018-Jul-17 03:30N 34°31' E 135°15'918.0
2018-Jul-17 03:00N 34°25' E 135°07'918.2
2018-Jul-17 02:31N 34°18' E 134°60'918.8
2018-Jul-17 02:00N 34°09' E 135°01'918.8
2018-Jul-17 01:31N 33°59' E 135°01'918.2
2018-Jul-17 01:01N 33°50' E 135°02'21917.3
2018-Jul-16 12:19N 34°50' E 139°18'517.5
2018-Jul-16 12:00N 34°53' E 139°22'816.0
2018-Jul-16 11:29N 34°59' E 139°30'817.3
2018-Jul-16 11:01N 35°04' E 139°38'817.1
2018-Jul-16 10:31N 35°10' E 139°45'612.7
2018-Jul-16 10:01N 35°17' E 139°45'612.8
2018-Jul-16 09:31N 35°22' E 139°42'917.2
2018-Jul-16 09:00N 35°29' E 139°49'713.2
2018-Jul-16 08:30N 35°35' E 139°47'2 0.2
2018-Jul-15 22:50N 35°37' E 139°47'2 5.7
2018-Jul-15 22:30N 35°36' E 139°47'4 8.4
2018-Jul-15 22:00N 35°34' E 139°52'0 0.3
2018-Jul-15 21:27N 35°34' E 139°52'0 0.0
2018-Jul-15 20:45N 35°34' E 139°52'0 0.0
2018-Jul-15 20:30N 35°34' E 139°52'0 0.0
2018-Jul-15 20:00N 35°34' E 139°52'0 0.0
2018-Jul-15 19:30N 35°34' E 139°52'0 0.0
2018-Jul-15 18:51N 35°34' E 139°52'0 0.0
2018-Jul-15 18:24N 35°34' E 139°52'0 0.0
2018-Jul-15 18:00N 35°34' E 139°52'0 0.0
2018-Jul-15 17:30N 35°34' E 139°52'0 0.0
2018-Jul-15 17:00N 35°34' E 139°52'0 0.0
2018-Jul-15 16:30N 35°34' E 139°52'0 0.0
2018-Jul-15 16:00N 35°34' E 139°52'0 0.0
2018-Jul-15 15:30N 35°34' E 139°52'0 0.0
2018-Jul-15 14:57N 35°34' E 139°52'0 0.0
2018-Jul-15 14:15N 35°34' E 139°52'0 0.0
2018-Jul-15 13:57N 35°34' E 139°52'0 0.0
2018-Jul-15 13:21N 35°34' E 139°52'0 0.0
2018-Jul-15 13:00N 35°34' E 139°52'0 0.0
2018-Jul-15 12:30N 35°34' E 139°52'0 0.0
2018-Jul-15 11:57N 35°34' E 139°52'0 0.0
2018-Jul-15 11:30N 35°34' E 139°52'0 0.0
2018-Jul-15 11:00N 35°34' E 139°52'0 0.0
2018-Jul-15 10:30N 35°34' E 139°52'0 0.0
2018-Jul-15 09:57N 35°34' E 139°52'0 0.0
2018-Jul-15 09:27N 35°34' E 139°52'0 0.0
2018-Jul-15 08:57N 35°34' E 139°52'0 0.0
2018-Jul-15 08:30N 35°34' E 139°52'0 0.0
2018-Jul-15 07:57N 35°34' E 139°52'0 0.0
2018-Jul-15 07:30N 35°34' E 139°52'0 0.0
2018-Jul-15 07:00N 35°34' E 139°52'0 0.0
2018-Jul-15 06:27N 35°34' E 139°52'0 0.0
2018-Jul-15 06:00N 35°34' E 139°52'0 0.0
2018-Jul-15 05:30N 35°34' E 139°52'0 0.0
2018-Jul-15 05:00N 35°34' E 139°52'0 0.0
2018-Jul-15 04:30N 35°34' E 139°52'0 0.0
2018-Jul-15 04:00N 35°34' E 139°52'0 0.0
2018-Jul-15 03:30N 35°34' E 139°52'0 0.0
2018-Jul-15 03:00N 35°34' E 139°52'0 0.0
2018-Jul-15 02:27N 35°34' E 139°52'0 0.0
2018-Jul-15 02:00N 35°34' E 139°52'0 0.0
2018-Jul-15 01:30N 35°34' E 139°52'0 0.0
2018-Jul-15 00:57N 35°34' E 139°52'0 0.2
2018-Jul-15 00:31N 35°34' E 139°52'713.7
2018-Jul-15 00:00N 35°28' E 139°50'713.9
2018-Jul-14 23:30N 35°22' E 139°45'611.3
2018-Jul-14 23:00N 35°16' E 139°46'612.6
2018-Jul-14 22:30N 35°10' E 139°47'816.8
2018-Jul-14 22:00N 35°03' E 139°41'1020.4
2018-Jul-14 21:30N 34°57' E 139°31'7319.8
2018-Jul-14 17:49N 34°20' E 138°15'15616.8
2018-Jul-14 08:33N 33°40' E 135°13'119.1
2018-Jul-14 08:29N 33°41' E 135°12'1018.5
2018-Jul-14 07:58N 33°48' E 135°05'818.0
2018-Jul-14 07:30N 33°56' E 135°00'1019.2
2018-Jul-14 07:00N 34°05' E 134°59'1121.1
2018-Jul-14 06:30N 34°16' E 134°59'815.9
2018-Jul-14 06:00N 34°23' E 135°02'1019.6
2018-Jul-14 05:30N 34°30' E 135°10'918.4
2018-Jul-14 05:00N 34°36' E 135°19'5 9.9
2018-Jul-14 04:30N 34°37' E 135°25'0 0.3
2018-Jul-14 03:56N 34°37' E 135°25'0 0.0
2018-Jul-14 03:20N 34°37' E 135°25'0 0.0
2018-Jul-14 02:50N 34°37' E 135°25'0 0.0
2018-Jul-14 02:20N 34°37' E 135°25'0 0.0
2018-Jul-14 01:56N 34°37' E 135°25'0 0.0
2018-Jul-14 01:26N 34°37' E 135°25'0 0.0
2018-Jul-14 00:56N 34°37' E 135°25'0 0.0
2018-Jul-14 00:26N 34°37' E 135°25'0 0.0
2018-Jul-13 23:56N 34°37' E 135°25'0 0.0
2018-Jul-13 23:26N 34°37' E 135°25'0 0.0
2018-Jul-13 22:50N 34°37' E 135°25'1 4.5
2018-Jul-13 22:30N 34°38' E 135°23'917.6
2018-Jul-13 22:00N 34°32' E 135°15'917.7
2018-Jul-13 21:30N 34°26' E 135°08'918.1
2018-Jul-13 21:00N 34°19' E 135°01'917.0
2018-Jul-13 20:30N 34°10' E 134°58'917.7
2018-Jul-13 20:00N 34°02' E 134°55'917.9
2018-Jul-13 19:30N 33°53' E 134°52'1017.4
2018-Jul-13 18:57N 33°45' E 134°47'  
Track history (hours):
 
Tides and Currents Weather Stations Pressure Air Temp Water Temp Dewpoint Dewpoint Depression Visibility Wind Speed Wind Dir Waves Ship Positions

Shuri

Last reported at 2018-Jul-21 19:30 UTC. Time now 2018-Jul-21 19:27 UTC.
Position N 34°59' E 139°39'.

Length 167 m; draft 6.4 m.

Type: Cargo ship. MMSI: 431501723.

Date/timePositionNaut miles runAvg speedWind from/ knotsBaromVisibWave heightAir tempDewpointWater temp
2018-Jul-21 19:30N 34°59' E 139°39'1120.3
2018-Jul-21 18:58N 34°53' E 139°28'22318.8
2018-Jul-21 07:08N 33°42' E 135°12'320.1
2018-Jul-21 07:00N 33°44' E 135°10'1020.5
2018-Jul-21 06:30N 33°52' E 135°02'1019.3
2018-Jul-21 06:01N 34°01' E 134°59'918.2
2018-Jul-21 05:30N 34°10' E 134°59'917.5
2018-Jul-21 05:00N 34°19' E 134°59'815.9
2018-Jul-21 04:30N 34°25' E 135°05'918.9
2018-Jul-21 04:00N 34°31' E 135°13'917.7
2018-Jul-21 03:30N 34°37' E 135°21'3 5.5
2018-Jul-21 03:00N 34°37' E 135°25'0 0.0
2018-Jul-21 02:30N 34°37' E 135°25'0 0.0
2018-Jul-21 02:00N 34°37' E 135°25'0 0.0
2018-Jul-21 01:30N 34°37' E 135°25'0 0.0
2018-Jul-21 01:00N 34°37' E 135°25'0 0.0
2018-Jul-21 00:30N 34°37' E 135°25'0 0.0
2018-Jul-21 00:00N 34°37' E 135°25'0 0.0
2018-Jul-20 23:24N 34°37' E 135°25'0 0.0
2018-Jul-20 23:00N 34°37' E 135°25'0 0.2
2018-Jul-20 22:30N 34°37' E 135°25'611.3
2018-Jul-20 22:01N 34°35' E 135°19'918.2
2018-Jul-20 21:30N 34°28' E 135°11'918.1
2018-Jul-20 21:00N 34°21' E 135°04'917.5
2018-Jul-20 20:30N 34°14' E 134°58'918.8
2018-Jul-20 20:01N 34°05' E 134°56'918.6
2018-Jul-20 19:31N 33°56' E 134°53'1218.2
2018-Jul-20 18:51N 33°45' E 134°47'618.7
2018-Jul-20 18:30N 33°39' E 134°42'  
2018-Jul-17 16:11N 33°26' E 134°29'421.2
2018-Jul-17 16:00N 33°29' E 134°32'1121.1
2018-Jul-17 15:30N 33°38' E 134°40'1121.0
2018-Jul-17 15:00N 33°46' E 134°48'1020.2
2018-Jul-17 14:30N 33°55' E 134°53'1020.4
2018-Jul-17 14:00N 34°05' E 134°56'1020.5
2018-Jul-17 13:30N 34°15' E 134°58'918.5
2018-Jul-17 13:00N 34°23' E 135°02'1020.4
2018-Jul-17 12:30N 34°30' E 135°12'918.5
2018-Jul-17 12:00N 34°36' E 135°20'4 7.9
2018-Jul-17 11:30N 34°37' E 135°25'0 0.3
2018-Jul-17 11:00N 34°37' E 135°25'0 0.0
2018-Jul-17 10:30N 34°37' E 135°25'0 0.0
2018-Jul-17 09:57N 34°37' E 135°25'0 0.0
2018-Jul-17 09:30N 34°37' E 135°25'0 0.0
2018-Jul-17 09:00N 34°37' E 135°25'0 0.0
2018-Jul-17 08:27N 34°37' E 135°25'0 0.0
2018-Jul-17 07:57N 34°37' E 135°25'0 0.0
2018-Jul-17 07:21N 34°37' E 135°25'0 0.0
2018-Jul-17 06:57N 34°37' E 135°25'0 0.0
2018-Jul-17 06:27N 34°37' E 135°25'0 0.0
2018-Jul-17 05:57N 34°37' E 135°25'0 0.0
2018-Jul-17 05:21N 34°37' E 135°25'0 0.0
2018-Jul-17 04:57N 34°37' E 135°25'0 0.0
2018-Jul-17 04:27N 34°37' E 135°25'2 4.6
2018-Jul-17 04:01N 34°37' E 135°22'917.8
2018-Jul-17 03:30N 34°31' E 135°15'918.0
2018-Jul-17 03:00N 34°25' E 135°07'918.2
2018-Jul-17 02:31N 34°18' E 134°60'918.8
2018-Jul-17 02:00N 34°09' E 135°01'918.8
2018-Jul-17 01:31N 33°59' E 135°01'918.2
2018-Jul-17 01:01N 33°50' E 135°02'21917.3
2018-Jul-16 12:19N 34°50' E 139°18'517.5
2018-Jul-16 12:00N 34°53' E 139°22'816.0
2018-Jul-16 11:29N 34°59' E 139°30'817.3
2018-Jul-16 11:01N 35°04' E 139°38'817.1
2018-Jul-16 10:31N 35°10' E 139°45'612.7
2018-Jul-16 10:01N 35°17' E 139°45'612.8
2018-Jul-16 09:31N 35°22' E 139°42'917.2
2018-Jul-16 09:00N 35°29' E 139°49'713.2
2018-Jul-16 08:30N 35°35' E 139°47'2 0.2
2018-Jul-15 22:50N 35°37' E 139°47'2 5.7
2018-Jul-15 22:30N 35°36' E 139°47'4 8.4
2018-Jul-15 22:00N 35°34' E 139°52'0 0.3
2018-Jul-15 21:27N 35°34' E 139°52'0 0.0
2018-Jul-15 20:45N 35°34' E 139°52'0 0.0
2018-Jul-15 20:30N 35°34' E 139°52'0 0.0
2018-Jul-15 20:00N 35°34' E 139°52'0 0.0
2018-Jul-15 19:30N 35°34' E 139°52'0 0.0
2018-Jul-15 18:51N 35°34' E 139°52'0 0.0
2018-Jul-15 18:24N 35°34' E 139°52'0 0.0
2018-Jul-15 18:00N 35°34' E 139°52'0 0.0
2018-Jul-15 17:30N 35°34' E 139°52'0 0.0
2018-Jul-15 17:00N 35°34' E 139°52'0 0.0
2018-Jul-15 16:30N 35°34' E 139°52'0 0.0
2018-Jul-15 16:00N 35°34' E 139°52'0 0.0
2018-Jul-15 15:30N 35°34' E 139°52'0 0.0
2018-Jul-15 14:57N 35°34' E 139°52'0 0.0
2018-Jul-15 14:15N 35°34' E 139°52'0 0.0
2018-Jul-15 13:57N 35°34' E 139°52'0 0.0
2018-Jul-15 13:21N 35°34' E 139°52'0 0.0
2018-Jul-15 13:00N 35°34' E 139°52'0 0.0
2018-Jul-15 12:30N 35°34' E 139°52'0 0.0
2018-Jul-15 11:57N 35°34' E 139°52'0 0.0
2018-Jul-15 11:30N 35°34' E 139°52'0 0.0
2018-Jul-15 11:00N 35°34' E 139°52'0 0.0
2018-Jul-15 10:30N 35°34' E 139°52'0 0.0
2018-Jul-15 09:57N 35°34' E 139°52'0 0.0
2018-Jul-15 09:27N 35°34' E 139°52'0 0.0
2018-Jul-15 08:57N 35°34' E 139°52'0 0.0
2018-Jul-15 08:30N 35°34' E 139°52'0 0.0
2018-Jul-15 07:57N 35°34' E 139°52'0 0.0
2018-Jul-15 07:30N 35°34' E 139°52'0 0.0
2018-Jul-15 07:00N 35°34' E 139°52'0 0.0
2018-Jul-15 06:27N 35°34' E 139°52'0 0.0
2018-Jul-15 06:00N 35°34' E 139°52'0 0.0
2018-Jul-15 05:30N 35°34' E 139°52'0 0.0
2018-Jul-15 05:00N 35°34' E 139°52'0 0.0
2018-Jul-15 04:30N 35°34' E 139°52'0 0.0
2018-Jul-15 04:00N 35°34' E 139°52'0 0.0
2018-Jul-15 03:30N 35°34' E 139°52'0 0.0
2018-Jul-15 03:00N 35°34' E 139°52'0 0.0
2018-Jul-15 02:27N 35°34' E 139°52'0 0.0
2018-Jul-15 02:00N 35°34' E 139°52'0 0.0
2018-Jul-15 01:30N 35°34' E 139°52'0 0.0
2018-Jul-15 00:57N 35°34' E 139°52'0 0.2
2018-Jul-15 00:31N 35°34' E 139°52'713.7
2018-Jul-15 00:00N 35°28' E 139°50'713.9
2018-Jul-14 23:30N 35°22' E 139°45'611.3
2018-Jul-14 23:00N 35°16' E 139°46'612.6
2018-Jul-14 22:30N 35°10' E 139°47'816.8
2018-Jul-14 22:00N 35°03' E 139°41'1020.4
2018-Jul-14 21:30N 34°57' E 139°31'7319.8
2018-Jul-14 17:49N 34°20' E 138°15'15616.8
2018-Jul-14 08:33N 33°40' E 135°13'119.1
2018-Jul-14 08:29N 33°41' E 135°12'1018.5
2018-Jul-14 07:58N 33°48' E 135°05'818.0
2018-Jul-14 07:30N 33°56' E 135°00'1019.2
2018-Jul-14 07:00N 34°05' E 134°59'1121.1
2018-Jul-14 06:30N 34°16' E 134°59'815.9
2018-Jul-14 06:00N 34°23' E 135°02'1019.6
2018-Jul-14 05:30N 34°30' E 135°10'918.4
2018-Jul-14 05:00N 34°36' E 135°19'5 9.9
2018-Jul-14 04:30N 34°37' E 135°25'0 0.3
2018-Jul-14 03:56N 34°37' E 135°25'0 0.0
2018-Jul-14 03:20N 34°37' E 135°25'0 0.0
2018-Jul-14 02:50N 34°37' E 135°25'0 0.0
2018-Jul-14 02:20N 34°37' E 135°25'0 0.0
2018-Jul-14 01:56N 34°37' E 135°25'0 0.0
2018-Jul-14 01:26N 34°37' E 135°25'0 0.0
2018-Jul-14 00:56N 34°37' E 135°25'0 0.0
2018-Jul-14 00:26N 34°37' E 135°25'0 0.0
2018-Jul-13 23:56N 34°37' E 135°25'0 0.0
2018-Jul-13 23:26N 34°37' E 135°25'0 0.0
2018-Jul-13 22:50N 34°37' E 135°25'1 4.5
2018-Jul-13 22:30N 34°38' E 135°23'917.6
2018-Jul-13 22:00N 34°32' E 135°15'917.7
2018-Jul-13 21:30N 34°26' E 135°08'918.1
2018-Jul-13 21:00N 34°19' E 135°01'917.0
2018-Jul-13 20:30N 34°10' E 134°58'917.7
2018-Jul-13 20:00N 34°02' E 134°55'917.9
2018-Jul-13 19:30N 33°53' E 134°52'1017.4
2018-Jul-13 18:57N 33°45' E 134°47'  

Dump ship's entire track history